Time;durP1;ratioP1;P1;durP2;ratioP2;P2;SDS_P1;SDS_P2;PMS_P1;PMS_P2;Temp;Humidity;BMP_temperature;BMP_pressure;BME280_temperature;BME280_humidity;BME280_pressure;Samples;Min_cycle;Max_cycle;Signal;HPM_P1;HPM_P2
2022/01/15 00:01:32;;;;;;;20.90;10.50;;;;;;;4.17;68.66;101279.81;5404526;32;33727;-68
2022/01/15 00:04:34;;;;;;;18.53;9.53;;;;;;;4.14;68.96;101297.19;5416529;32;34018;-66
2022/01/15 00:07:38;;;;;;;19.63;9.30;;;;;;;4.39;67.69;101293.75;5412209;32;34650;-67
2022/01/15 00:10:40;;;;;;;19.10;9.65;;;;;;;4.81;66.73;101300.66;5415814;32;34461;-67
2022/01/15 00:13:45;;;;;;;18.53;9.60;;;;;;;4.33;68.74;101301.53;5411539;32;35039;-67
2022/01/15 00:16:50;;;;;;;20.93;10.13;;;;;;;4.50;68.02;101299.81;5397874;32;45380;-68
2022/01/15 00:19:53;;;;;;;19.33;9.67;;;;;;;4.14;69.49;101305.84;5417436;32;35077;-67
2022/01/15 00:22:57;;;;;;;18.70;9.33;;;;;;;3.99;69.78;101300.59;5409407;32;34071;-67
2022/01/15 00:25:59;;;;;;;18.93;9.33;;;;;;;4.37;68.49;101297.19;5416932;32;34050;-66
2022/01/15 00:29:01;;;;;;;17.60;8.53;;;;;;;4.19;68.83;101317.16;5412231;32;34070;-69
2022/01/15 00:32:05;;;;;;;17.70;9.30;;;;;;;4.22;68.88;101330.16;5414903;32;34127;-68
2022/01/15 00:35:08;;;;;;;;;;;;;;;4.12;69.26;101327.50;5399288;32;36063;-69
2022/01/15 00:38:10;;;;;;;18.50;9.10;;;;;;;4.22;69.50;101339.69;5411332;32;34343;-69
2022/01/15 00:41:12;;;;;;;18.50;9.13;;;;;;;4.10;69.38;101335.31;5417415;32;34988;-69
2022/01/15 00:44:15;;;;;;;18.17;9.43;;;;;;;4.62;67.69;101338.00;5409079;32;35267;-69
2022/01/15 00:47:17;;;;;;;19.90;8.30;;;;;;;4.76;66.61;101338.00;5416065;32;47159;-69
2022/01/15 00:50:20;;;;;;;18.20;9.27;;;;;;;4.78;66.29;101331.06;5398520;32;34503;-68
2022/01/15 00:53:22;;;;;;;19.20;9.90;;;;;;;4.40;67.90;101329.31;5414243;32;35342;-68
2022/01/15 00:56:24;;;;;;;18.83;8.93;;;;;;;4.39;67.86;101337.12;5379766;32;34608;-68
2022/01/15 00:59:26;;;;;;;14.17;7.47;;;;;;;4.67;67.13;101338.87;5402669;32;34062;-68
2022/01/15 01:02:28;;;;;;;18.13;9.17;;;;;;;4.10;69.14;101345.72;5412513;32;35743;-68
2022/01/15 01:05:30;;;;;;;17.97;9.40;;;;;;;4.38;68.21;101338.87;5411953;32;33920;-68
2022/01/15 01:08:32;;;;;;;16.60;8.60;;;;;;;4.27;68.51;101349.25;5415607;32;33921;-68
2022/01/15 01:11:45;;;;;;;16.73;7.90;;;;;;;4.01;69.69;101350.91;5411981;32;33888;-68
2022/01/15 01:24:50;;;;;;;17.20;7.67;;;;;;;4.48;67.40;101365.75;5402927;32;44413;-68
2022/01/15 01:27:55;;;;;;;19.23;8.93;;;;;;;4.05;69.81;101379.53;5383733;32;34797;-67
2022/01/15 01:31:16;;;;;;;17.97;8.77;;;;;;;4.34;67.97;101361.41;5410882;32;34030;-66
2022/01/15 01:34:19;;;;;;;16.90;8.53;;;;;;;4.67;66.65;101367.53;5398562;32;46239;-69
2022/01/15 01:37:33;;;;;;;16.30;8.00;;;;;;;4.34;67.96;101370.94;5405803;32;34220;-66
2022/01/15 01:40:42;;;;;;;16.60;7.90;;;;;;;4.17;68.52;101364.81;5402643;32;34554;-67
2022/01/15 01:43:52;;;;;;;17.20;7.90;;;;;;;3.68;70.51;101375.94;5402945;32;34960;-67
2022/01/15 01:47:03;;;;;;;18.07;8.47;;;;;;;3.99;69.18;101360.44;5395414;32;44359;-67
2022/01/15 01:50:08;;;;;;;17.67;8.23;;;;;;;4.28;68.34;101360.53;5417007;32;34760;-67
2022/01/15 01:53:10;;;;;;;16.90;8.50;;;;;;;4.25;67.97;101356.19;5410674;32;34965;-67
2022/01/15 01:56:13;;;;;;;19.30;8.50;;;;;;;3.86;69.65;101367.31;5370254;32;34910;-67
2022/01/15 01:59:16;;;;;;;18.60;9.77;;;;;;;3.94;70.50;101372.56;5402099;32;34124;-67
2022/01/15 02:02:18;;;;;;;22.67;8.60;;;;;;;3.69;70.57;101375.06;5395409;32;44192;-66
2022/01/15 02:05:21;;;;;;;16.40;8.70;;;;;;;4.26;68.99;101360.53;5398183;32;34942;-67
2022/01/15 02:08:23;;;;;;;19.10;9.73;;;;;;;4.42;67.80;101360.53;5401990;32;34212;-67
2022/01/15 02:11:26;;;;;;;16.07;8.97;;;;;;;3.92;70.02;101361.28;5402891;32;35354;-67
2022/01/15 02:14:30;;;;;;;18.90;9.33;;;;;;;3.72;70.46;101377.66;5410004;32;35919;-69
2022/01/15 02:17:32;;;;;;;17.17;8.85;;;;;;;4.38;68.68;101367.50;5414711;32;35240;-68
2022/01/15 02:20:58;;;;;;;16.30;8.37;;;;;;;4.32;68.15;101375.28;5411912;32;34281;-68
2022/01/15 02:23:56;;;;;;;18.80;8.47;;;;;;;4.11;69.14;101370.88;5409283;32;32197;-67
2022/01/15 02:26:58;;;;;;;18.37;8.47;;;;;;;4.35;68.29;101381.34;5415814;32;36422;-67
2022/01/15 02:30:03;;;;;;;17.97;9.23;;;;;;;4.17;68.46;101373.50;5410871;32;33884;-66
2022/01/15 02:33:06;;;;;;;17.50;9.27;;;;;;;4.26;68.58;101367.47;5415110;32;34865;-67
2022/01/15 02:36:17;;;;;;;16.97;9.20;;;;;;;4.63;67.11;101363.16;5410875;32;34588;-66
2022/01/15 02:39:19;;;;;;;20.17;9.87;;;;;;;4.21;68.86;101363.97;5413457;32;44758;-67
2022/01/15 02:42:23;;;;;;;16.50;8.97;;;;;;;4.26;67.70;101350.12;5412444;32;34795;-67
2022/01/15 02:45:26;;;;;;;19.55;9.35;;;;;;;4.14;68.64;101352.69;5410294;32;34170;-67
2022/01/15 02:48:29;;;;;;;18.98;9.63;;;;;;;3.84;70.41;101360.38;5415314;32;34350;-67
2022/01/15 02:51:33;;;;;;;17.97;9.33;;;;;;;3.86;69.97;101366.44;5410900;32;33921;-66
2022/01/15 02:54:35;;;;;;;18.67;10.53;;;;;;;3.96;69.90;101363.03;5379909;32;34743;-67
2022/01/15 02:57:38;;;;;;;20.43;10.37;;;;;;;3.82;70.39;101359.53;5384829;32;34860;-68
2022/01/15 03:00:40;;;;;;;16.77;9.27;;;;;;;3.98;70.18;101372.56;5384818;32;34260;-67
2022/01/15 03:03:42;;;;;;;18.20;8.90;;;;;;;3.85;70.72;101359.50;5414008;32;34253;-67
2022/01/15 03:06:45;;;;;;;18.13;8.97;;;;;;;3.89;70.13;101358.69;5398411;32;34203;-67
2022/01/15 03:09:47;;;;;;;18.47;9.83;;;;;;;4.28;68.96;101360.53;5403427;32;44613;-67
2022/01/15 03:12:49;;;;;;;20.90;9.90;;;;;;;4.03;69.15;101352.66;5412471;32;35118;-66
2022/01/15 03:15:51;;;;;;;18.67;9.00;;;;;;;3.50;71.40;101368.91;5415573;32;35780;-67
2022/01/15 03:18:53;;;;;;;16.50;9.50;;;;;;;3.88;70.43;101367.34;5410811;32;35016;-67
2022/01/15 03:21:56;;;;;;;18.30;9.23;;;;;;;4.05;69.59;101370.84;5400641;32;34755;-67
2022/01/15 03:24:58;;;;;;;17.17;9.33;;;;;;;3.75;70.22;101369.91;5410693;32;35213;-67
2022/01/15 03:28:00;;;;;;;18.90;9.73;;;;;;;4.39;68.17;101376.19;5395408;32;33921;-67
2022/01/15 03:31:02;;;;;;;17.80;9.90;;;;;;;4.06;68.69;101378.69;5402503;32;34117;-67
2022/01/15 03:34:06;;;;;;;17.47;8.70;;;;;;;4.18;68.87;101383.03;5398402;32;34905;-67
2022/01/15 03:37:08;;;;;;;18.23;9.60;;;;;;;4.31;68.38;101389.16;5416056;32;34581;-66
2022/01/15 03:40:12;;;;;;;17.10;8.50;;;;;;;3.82;69.45;101375.13;5413315;32;36699;-67
2022/01/15 03:43:14;;;;;;;14.57;8.02;;;;;;;4.10;68.49;101389.09;5412762;32;34763;-69
2022/01/15 03:46:17;;;;;;;15.97;7.73;;;;;;;3.61;69.75;101386.28;5384522;32;44171;-68
2022/01/15 03:49:19;;;;;;;15.93;8.53;;;;;;;3.96;68.12;101379.50;5394691;32;34690;-68
2022/01/15 03:52:21;;;;;;;16.57;8.07;;;;;;;3.75;70.14;101392.44;5402684;32;34093;-67
2022/01/15 03:55:24;;;;;;;15.97;8.30;;;;;;;3.75;69.37;101385.50;5390827;32;34219;-66
2022/01/15 03:58:26;;;;;;;19.27;8.47;;;;;;;3.61;70.29;101391.50;5400824;32;34600;-67
2022/01/15 04:01:28;;;;;;;17.50;8.67;;;;;;;3.76;69.34;101396.75;5404691;32;36712;-68
2022/01/15 04:04:30;;;;;;;17.10;9.03;;;;;;;3.70;69.83;101409.72;5412465;32;33455;-67
2022/01/15 04:07:32;;;;;;;19.13;9.20;;;;;;;3.64;70.23;101409.69;5416062;32;34569;-67
2022/01/15 04:10:35;;;;;;;18.70;9.70;;;;;;;4.59;66.86;101403.97;5410651;32;35325;-67
2022/01/15 04:13:37;;;;;;;20.17;9.73;;;;;;;3.60;70.48;101424.38;5402283;32;34165;-67
2022/01/15 04:16:39;;;;;;;19.17;9.00;;;;;;;3.45;71.67;101421.72;5403966;32;34138;-67
2022/01/15 04:19:41;;;;;;;18.60;9.40;;;;;;;3.14;72.47;101415.41;5401866;32;34758;-67
2022/01/15 04:22:44;;;;;;;18.00;8.40;;;;;;;3.34;72.96;101426.81;5412593;32;34868;-67
2022/01/15 04:25:46;;;;;;;18.20;9.43;;;;;;;3.67;70.40;101417.50;5393394;32;44758;-67
2022/01/15 04:28:48;;;;;;;18.33;9.30;;;;;;;3.72;69.86;101432.25;5401714;32;34907;-67
2022/01/15 04:31:51;;;;;;;18.60;9.43;;;;;;;3.91;68.35;101427.16;5395789;32;34079;-68
2022/01/15 04:34:53;;;;;;;16.87;8.15;;;;;;;3.86;69.33;101434.06;5412888;32;35304;-67
2022/01/15 04:38:03;;;;;;;18.43;9.30;;;;;;;3.19;71.14;101434.50;5393707;32;34129;-67
2022/01/15 04:41:06;;;;;;;19.93;8.57;;;;;;;3.31;70.26;101441.53;5414209;32;34878;-66
2022/01/15 04:44:08;;;;;;;14.93;7.57;;;;;;;4.20;67.34;101428.16;5384374;32;34892;-67
2022/01/15 04:47:10;;;;;;;15.63;7.50;;;;;;;3.49;69.39;101436.47;5409991;32;34206;-66
2022/01/15 04:50:14;;;;;;;17.30;7.90;;;;;;;3.15;70.55;101436.19;5418007;32;34531;-67
2022/01/15 04:53:17;;;;;;;16.47;7.90;;;;;;;3.31;70.18;101441.53;5396686;32;44324;-67
2022/01/15 04:56:19;;;;;;;15.97;7.90;;;;;;;3.50;68.74;101446.87;5387558;32;34133;-67
2022/01/15 04:59:23;;;;;;;16.27;7.33;;;;;;;3.83;68.28;101457.47;5389727;32;35010;-67
2022/01/15 05:02:25;;;;;;;;;;;;;;;3.46;69.11;101458.09;5409442;32;34010;-67
2022/01/15 05:05:28;;;;;;;15.63;7.70;;;;;;;3.85;67.57;101461.81;5414117;32;35165;-67
2022/01/15 05:08:31;;;;;;;19.73;11.90;;;;;;;3.61;68.06;101467.75;5410941;32;34674;-67
2022/01/15 05:11:49;;;;;;;16.30;7.57;;;;;;;4.44;64.60;101462.94;5412365;32;34530;-67
2022/01/15 05:14:51;;;;;;;15.07;6.87;;;;;;;3.89;65.52;101458.38;5410906;32;46264;-67
2022/01/15 05:17:53;;;;;;;12.87;6.33;;;;;;;3.58;67.19;101459.91;5413872;32;34846;-67
2022/01/15 05:20:57;;;;;;;16.47;7.33;;;;;;;3.34;67.63;101454.53;5398456;32;34609;-68
2022/01/15 05:23:59;;;;;;;13.88;6.75;;;;;;;4.14;64.34;101440.28;5408292;32;34497;-67
2022/01/15 05:27:01;;;;;;;14.43;6.70;;;;;;;3.52;67.68;101446.87;5411998;32;34900;-67
2022/01/15 05:30:04;;;;;;;18.17;7.47;;;;;;;4.05;65.65;101448.91;5392262;32;34069;-67
2022/01/15 05:33:06;;;;;;;17.35;6.93;;;;;;;4.31;63.83;101444.66;5401579;32;34531;-67
2022/01/15 05:36:09;;;;;;;14.70;6.10;;;;;;;4.07;65.21;101449.78;5412107;32;34852;-68
2022/01/15 05:39:11;;;;;;;14.93;7.70;;;;;;;4.06;64.56;101458.47;5400799;32;34845;-68
2022/01/15 05:42:13;;;;;;;15.97;7.03;;;;;;;3.72;66.07;101468.66;5411638;32;35464;-66
2022/01/15 05:45:16;;;;;;;12.77;6.10;;;;;;;4.43;63.08;101475.06;5398626;32;34658;-67
2022/01/15 05:48:18;;;;;;;14.90;6.77;;;;;;;4.52;63.25;101476.88;5401327;32;46022;-66
2022/01/15 05:51:20;;;;;;;14.80;6.63;;;;;;;3.94;63.94;101474.00;5410762;32;34174;-66
2022/01/15 05:54:22;;;;;;;15.63;6.67;;;;;;;4.28;62.53;101464.63;5416879;32;34029;-67
2022/01/15 05:57:25;;;;;;;17.67;8.83;;;;;;;3.43;65.30;101465.88;5374024;32;34500;-67
2022/01/15 06:00:27;;;;;;;21.87;10.30;;;;;;;3.41;66.15;101482.31;5405150;32;34455;-67
2022/01/15 06:03:29;;;;;;;20.60;9.73;;;;;;;3.21;67.30;101490.81;5412028;32;34014;-67
2022/01/15 06:06:31;;;;;;;21.40;8.70;;;;;;;3.18;67.17;101485.59;5397687;32;34414;-66
2022/01/15 06:09:33;;;;;;;18.40;8.20;;;;;;;3.74;65.26;101490.38;5384515;32;34268;-67
2022/01/15 06:12:42;;;;;;;24.93;9.17;;;;;;;3.44;66.31;101487.56;5409649;32;34180;-67
2022/01/15 06:15:44;;;;;;;14.10;7.00;;;;;;;3.31;67.04;101486.59;5398233;32;34768;-67
2022/01/15 06:18:47;;;;;;;15.93;7.27;;;;;;;3.60;65.34;101491.97;5396087;32;44761;-69
2022/01/15 06:21:49;;;;;;;15.47;6.90;;;;;;;3.89;63.75;101500.00;5412332;32;34269;-67
2022/01/15 06:24:52;;;;;;;14.93;6.63;;;;;;;3.61;64.32;101501.56;5412361;32;34840;-69
2022/01/15 06:27:54;;;;;;;14.98;6.28;;;;;;;4.02;63.71;101493.12;5407811;32;34784;-68
2022/01/15 06:30:56;;;;;;;15.30;7.17;;;;;;;3.83;63.45;101493.88;5408968;32;35691;-68
2022/01/15 06:33:59;;;;;;;13.77;6.63;;;;;;;4.30;62.22;101494.97;5392977;32;36441;-69
2022/01/15 06:37:01;;;;;;;14.53;6.70;;;;;;;3.68;63.80;101498.13;5396745;32;34051;-69
2022/01/15 06:40:05;;;;;;;15.60;6.73;;;;;;;3.19;65.45;101508.13;5395005;32;34135;-69
2022/01/15 06:43:07;;;;;;;15.07;6.60;;;;;;;3.50;64.73;101508.37;5407678;32;35153;-68
2022/01/15 06:46:09;;;;;;;18.33;6.80;;;;;;;4.05;62.79;101498.31;5412856;32;35200;-68
2022/01/15 06:49:11;;;;;;;13.67;6.10;;;;;;;3.64;63.96;101506.75;5403903;32;34230;-68
2022/01/15 06:52:14;;;;;;;13.70;6.00;;;;;;;4.01;61.85;101507.00;5409449;32;34884;-68
2022/01/15 06:55:16;;;;;;;13.30;5.90;;;;;;;4.15;60.26;101509.66;5379843;32;47225;-69
2022/01/15 06:58:25;;;;;;;14.37;5.47;;;;;;;4.44;60.46;101525.41;5385956;32;34769;-68
2022/01/15 07:01:27;;;;;;;16.37;5.80;;;;;;;4.36;60.03;101525.37;5403011;32;34353;-69
2022/01/15 07:04:29;;;;;;;19.00;6.97;;;;;;;4.58;59.22;101526.34;5412316;32;33958;-67
2022/01/15 07:07:32;;;;;;;14.57;6.03;;;;;;;5.01;58.33;101521.25;5411697;32;34261;-67
2022/01/15 07:10:38;;;;;;;17.17;6.43;;;;;;;4.70;58.31;101521.19;5410798;32;34109;-67
2022/01/15 07:13:41;;;;;;;17.13;6.63;;;;;;;4.58;59.08;101528.97;5415906;32;34756;-67
2022/01/15 07:16:43;;;;;;;13.77;5.60;;;;;;;5.12;57.26;101520.41;5410312;32;34738;-67
2022/01/15 07:19:45;;;;;;;15.07;5.33;;;;;;;4.08;60.67;101521.78;5398416;32;33795;-67
2022/01/15 07:22:47;;;;;;;13.07;5.17;;;;;;;4.23;60.78;101534.84;5393358;32;45551;-67
2022/01/15 07:25:51;;;;;;;12.88;5.12;;;;;;;4.76;58.10;101536.81;5398053;32;33852;-67
2022/01/15 07:28:53;;;;;;;13.43;4.80;;;;;;;5.15;57.01;101540.38;5400858;32;34661;-67
2022/01/15 07:31:55;;;;;;;12.53;4.83;;;;;;;4.33;59.59;101551.41;5393416;32;33903;-68
2022/01/15 07:34:57;;;;;;;11.80;4.37;;;;;;;4.66;58.45;101553.28;5402514;32;34563;-67
2022/01/15 07:37:59;;;;;;;12.30;5.30;;;;;;;4.79;57.67;101547.25;5387611;32;34701;-67
2022/01/15 07:41:10;;;;;;;17.20;4.80;;;;;;;4.68;58.52;101553.28;5389092;32;34260;-67
2022/01/15 07:44:12;;;;;;;13.60;5.13;;;;;;;5.28;56.58;101543.84;5405647;32;35453;-67
2022/01/15 07:47:15;;;;;;;10.33;4.47;;;;;;;5.12;56.00;101538.63;5398183;32;34802;-67
2022/01/15 07:50:23;;;;;;;12.00;4.67;;;;;;;4.71;56.93;101553.31;5415921;32;44374;-67
2022/01/15 07:53:26;;;;;;;10.40;4.60;;;;;;;4.64;57.85;101552.41;5408666;32;34801;-67
2022/01/15 07:56:28;;;;;;;16.20;5.40;;;;;;;4.49;56.93;101561.00;5389114;32;34977;-67
2022/01/15 07:59:30;;;;;;;10.40;4.13;;;;;;;4.46;57.71;101557.53;5385486;32;34224;-67
2022/01/15 08:02:32;;;;;;;12.17;4.30;;;;;;;4.20;58.82;101576.50;5412955;32;34067;-67
2022/01/15 08:05:34;;;;;;;14.70;4.30;;;;;;;4.14;58.11;101568.66;5412743;32;34146;-67
2022/01/15 08:08:37;;;;;;;13.13;4.40;;;;;;;4.20;57.82;101575.63;5387497;32;34922;-67
2022/01/15 08:11:39;;;;;;;11.93;4.07;;;;;;;5.31;54.49;101575.16;5417526;32;34891;-68
2022/01/15 08:14:41;;;;;;;11.13;4.07;;;;;;;5.05;55.00;101575.13;5410568;32;34192;-67
2022/01/15 08:17:43;;;;;;;10.40;4.40;;;;;;;5.12;54.39;101571.66;5415102;32;34513;-68
2022/01/15 08:20:45;;;;;;;10.27;4.03;;;;;;;5.28;53.72;101568.22;5413897;32;34853;-68
2022/01/15 08:23:48;;;;;;;11.83;4.30;;;;;;;4.57;55.30;101574.06;5416227;32;46566;-67
2022/01/15 08:26:51;;;;;;;10.97;4.53;;;;;;;4.53;55.37;101577.53;5414728;32;34992;-68
2022/01/15 08:29:54;;;;;;;11.43;3.93;;;;;;;4.32;55.98;101578.31;5412869;32;35140;-68
2022/01/15 08:32:56;;;;;;;12.77;4.47;;;;;;;4.88;53.71;101559.41;5417098;32;34553;-68
2022/01/15 08:35:58;;;;;;;14.13;3.67;;;;;;;4.85;54.58;101575.06;5412553;32;36328;-67
2022/01/15 08:39:00;;;;;;;9.53;3.83;;;;;;;4.55;54.61;101584.47;5413658;32;34906;-68
2022/01/15 08:42:06;;;;;;;13.90;3.53;;;;;;;4.04;56.74;101585.03;5412772;32;34683;-68
2022/01/15 08:45:10;;;;;;;14.63;4.00;;;;;;;5.06;53.28;101572.50;5415656;32;34692;-67
2022/01/15 08:48:12;;;;;;;9.98;3.53;;;;;;;5.56;51.97;101573.44;5415517;32;35451;-69
2022/01/15 08:51:14;;;;;;;12.57;3.70;;;;;;;4.71;54.03;101576.75;5412188;32;35368;-69
2022/01/15 08:54:17;;;;;;;16.40;3.57;;;;;;;5.02;52.93;101578.56;5417550;32;44487;-67
2022/01/15 08:57:19;;;;;;;15.43;3.77;;;;;;;5.30;51.46;101570.81;5375358;32;35027;-68
2022/01/15 09:00:21;;;;;;;12.90;3.77;;;;;;;5.82;50.78;101563.88;5403626;32;154432;-69
2022/01/15 09:03:24;;;;;;;14.10;3.70;;;;;;;4.73;53.28;101578.47;5397805;32;34861;-69
2022/01/15 09:06:27;;;;;;;12.63;3.35;;;;;;;5.51;51.57;101564.75;5381512;32;34513;-69
2022/01/15 09:09:29;;;;;;;8.43;2.80;;;;;;;5.44;51.77;101563.88;5401770;32;36044;-67
2022/01/15 09:12:31;;;;;;;7.40;3.20;;;;;;;5.05;51.84;101570.75;5411495;32;34455;-68
2022/01/15 09:15:54;;;;;;;12.23;3.83;;;;;;;5.21;51.53;101565.56;5409669;32;44761;-68
2022/01/15 09:18:57;;;;;;;11.97;3.93;;;;;;;5.21;51.68;101563.84;5406591;32;36360;-68
2022/01/15 09:22:00;;;;;;;15.60;4.43;;;;;;;4.95;52.36;101568.13;5396893;32;34732;-69
2022/01/15 09:25:03;;;;;;;7.47;3.07;;;;;;;5.43;51.73;101560.41;5413590;32;34639;-68
2022/01/15 09:31:26;;;;;;;7.87;3.23;;;;;;;4.86;51.74;101567.25;5416881;32;32196;-67
2022/01/15 09:34:28;;;;;;;13.43;3.30;;;;;;;5.05;51.61;101554.25;5411183;32;34378;-70
2022/01/15 09:37:31;;;;;;;9.27;3.33;;;;;;;5.71;49.31;101569.09;5401604;32;34669;-68
2022/01/15 09:40:33;;;;;;;12.90;3.90;;;;;;;5.13;51.19;101563.81;5412106;32;33958;-68
2022/01/15 09:43:38;;;;;;;12.13;3.53;;;;;;;5.09;51.03;101569.06;5413203;32;35022;-68
2022/01/15 09:46:40;;;;;;;11.70;3.30;;;;;;;4.98;51.45;101574.22;5401337;32;35463;-68
2022/01/15 09:49:45;;;;;;;11.17;3.50;;;;;;;5.36;50.32;101579.53;5412593;32;34112;-68
2022/01/15 09:52:47;;;;;;;6.17;2.47;;;;;;;5.48;49.99;101569.97;5404413;32;44421;-68
2022/01/15 09:55:49;;;;;;;11.37;3.27;;;;;;;5.44;49.13;101566.47;5395467;32;34442;-69
2022/01/15 09:58:54;;;;;;;10.60;3.43;;;;;;;5.10;50.47;101574.25;5377682;32;35019;-68
2022/01/15 10:01:57;;;;;;;9.90;3.03;;;;;;;5.13;50.23;101570.78;5407535;32;35152;-66
2022/01/15 10:05:00;;;;;;;;;;;;;;;5.33;49.80;101561.25;5411078;32;34511;-68
2022/01/15 10:08:03;;;;;;;11.60;2.73;;;;;;;5.95;48.58;101547.38;5400509;32;34767;-68
2022/01/15 10:11:11;;;;;;;14.03;3.43;;;;;;;5.91;48.43;101550.84;5407015;32;34662;-68
2022/01/15 10:14:36;;;;;;;12.65;3.90;;;;;;;5.67;49.14;101556.94;5403802;32;34291;-67
2022/01/15 10:17:40;;;;;;;12.23;4.07;;;;;;;5.37;50.03;101559.53;5410606;32;34179;-68
2022/01/15 10:20:42;;;;;;;;;;;;;;;5.46;50.06;101556.03;5407822;32;34257;-67
2022/01/15 10:23:51;;;;;;;7.90;3.10;;;;;;;5.52;49.96;101550.84;5408693;32;35492;-67
2022/01/15 10:26:53;;;;;;;12.20;3.70;;;;;;;6.27;48.13;101538.59;5394859;32;44298;-67
2022/01/15 10:29:59;;;;;;;13.67;3.80;;;;;;;6.40;48.10;101545.50;5412885;32;34442;-68
2022/01/15 10:33:07;;;;;;;11.00;3.60;;;;;;;5.53;50.24;101545.59;5398362;32;34062;-67
2022/01/15 10:36:24;;;;;;;9.17;3.30;;;;;;;5.62;50.41;101531.72;5416678;32;33702;-67
2022/01/15 10:39:26;;;;;;;10.77;3.23;;;;;;;5.28;50.95;101549.06;5413639;32;32984;-69
2022/01/15 10:42:29;;;;;;;10.00;3.47;;;;;;;5.82;49.50;101545.63;5411695;32;34521;-67
2022/01/15 10:45:34;;;;;;;9.00;3.30;;;;;;;5.94;48.81;101544.75;5416139;32;33855;-67
2022/01/15 10:48:38;;;;;;;9.87;4.00;;;;;;;6.56;47.65;101527.16;5411023;32;34698;-67
2022/01/15 10:51:40;;;;;;;8.88;3.40;;;;;;;6.38;47.51;101538.56;5401074;32;33996;-67
2022/01/15 10:55:07;;;;;;;12.33;3.80;;;;;;;6.49;47.34;101535.00;5386207;32;35520;-69
2022/01/15 10:58:13;;;;;;;11.40;3.47;;;;;;;6.99;46.29;101526.06;5388810;32;35323;-67
2022/01/15 11:01:27;;;;;;;12.60;4.33;;;;;;;9.01;40.91;101516.13;5407719;32;35308;-68
2022/01/15 11:04:34;;;;;;;9.03;3.27;;;;;;;8.13;42.78;101526.84;5411230;32;34418;-68
2022/01/15 11:07:37;;;;;;;8.40;2.93;;;;;;;6.94;45.96;101527.81;5401247;32;34713;-68
2022/01/15 11:10:43;;;;;;;13.07;3.20;;;;;;;8.28;42.48;101519.69;5397593;32;34558;-68
2022/01/15 11:13:46;;;;;;;7.97;3.20;;;;;;;8.85;40.72;101522.47;5411287;32;35208;-68
2022/01/15 11:16:49;;;;;;;10.77;3.80;;;;;;;8.38;42.00;101518.72;5413381;32;45484;-68
2022/01/15 11:19:53;;;;;;;11.13;3.10;;;;;;;8.24;42.11;101516.22;5378365;32;34713;-67
2022/01/15 11:22:55;;;;;;;9.07;3.07;;;;;;;8.01;43.27;101516.50;5417860;32;34862;-68
2022/01/15 11:26:01;;;;;;;12.63;2.87;;;;;;;7.67;43.47;101509.88;5397682;32;33955;-67
2022/01/15 11:29:03;;;;;;;13.43;3.60;;;;;;;7.36;44.01;101510.12;5400002;32;34084;-67
2022/01/15 11:32:06;;;;;;;10.63;3.57;;;;;;;6.91;46.09;101530.47;5410002;32;36295;-67
2022/01/15 11:35:09;;;;;;;6.27;2.67;;;;;;;6.90;45.80;101523.50;5405833;32;34946;-66
2022/01/15 11:38:11;;;;;;;9.40;3.20;;;;;;;7.51;44.68;101517.81;5404915;32;35335;-67
2022/01/15 11:41:35;;;;;;;12.43;3.00;;;;;;;7.02;45.87;101515.59;5393840;32;35372;-65
2022/01/15 11:44:39;;;;;;;8.85;2.70;;;;;;;7.86;44.23;101507.06;5416804;32;33804;-67
2022/01/15 11:47:41;;;;;;;12.90;3.27;;;;;;;7.19;45.11;101506.75;5405986;32;35233;-67
2022/01/15 11:50:43;;;;;;;9.77;2.63;;;;;;;7.83;43.43;101491.34;5401146;32;34016;-67
2022/01/15 11:53:54;;;;;;;11.30;2.67;;;;;;;7.47;43.49;101507.38;5413063;32;34658;-67
2022/01/15 11:56:56;;;;;;;8.13;2.10;;;;;;;8.04;41.40;101510.34;5360647;32;35683;-68
2022/01/15 12:00:21;;;;;;;10.13;2.77;;;;;;;8.20;41.11;101485.72;5409921;32;35622;-68
2022/01/15 12:03:23;;;;;;;12.75;2.28;;;;;;;8.97;39.57;101485.59;5411831;32;44434;-67
2022/01/15 12:06:25;;;;;;;9.87;2.70;;;;;;;8.77;39.08;101490.28;5415919;32;34113;-67
2022/01/15 12:09:48;;;;;;;5.93;2.00;;;;;;;8.44;39.19;101481.09;5414905;32;35117;-68
2022/01/15 12:12:52;;;;;;;7.87;2.17;;;;;;;10.76;35.15;101469.16;5411383;32;44438;-68
2022/01/15 12:16:21;;;;;;;6.17;2.17;;;;;;;10.53;34.97;101464.37;5389032;32;34451;-68
2022/01/15 12:19:35;;;;;;;7.83;2.10;;;;;;;9.52;36.80;101478.59;5413143;32;44386;-69
2022/01/15 12:22:44;;;;;;;9.27;2.33;;;;;;;11.10;34.32;101451.66;5400391;32;34102;-69
2022/01/15 12:25:49;;;;;;;6.87;2.00;;;;;;;10.91;33.64;101463.53;5404016;32;43714;-68
2022/01/15 12:28:51;;;;;;;9.77;2.40;;;;;;;11.49;33.02;101464.72;5411790;32;34178;-70
2022/01/15 12:31:54;;;;;;;8.33;2.43;;;;;;;8.82;38.33;101462.22;5417863;32;34105;-67
2022/01/15 12:34:59;;;;;;;8.30;2.50;;;;;;;8.11;39.90;101475.34;5412589;32;35157;-67
2022/01/15 12:38:10;;;;;;;8.33;2.83;;;;;;;8.13;40.59;101477.06;5405415;32;35907;-68
2022/01/15 12:41:17;;;;;;;8.47;2.20;;;;;;;8.72;39.39;101458.00;5415382;32;35175;-67
2022/01/15 12:44:19;;;;;;;8.33;2.10;;;;;;;8.51;40.24;101459.19;5412439;32;48306;-68
2022/01/15 12:47:22;;;;;;;12.27;2.30;;;;;;;7.87;41.76;101472.12;5411086;32;34928;-68
2022/01/15 12:50:25;;;;;;;7.43;2.37;;;;;;;8.28;40.97;101451.56;5396980;32;34029;-68
2022/01/15 12:53:30;;;;;;;8.80;3.12;;;;;;;8.86;40.17;101467.41;5396645;32;34118;-67
2022/01/15 12:56:38;;;;;;;8.07;2.70;;;;;;;7.93;42.50;101465.97;5378874;32;33963;-67
2022/01/15 12:59:40;;;;;;;6.70;2.73;;;;;;;7.28;44.05;101462.25;5407240;32;34635;-68
2022/01/15 13:02:42;;;;;;;10.13;2.30;;;;;;;6.80;45.17;101459.09;5411739;32;33987;-67
2022/01/15 13:05:49;;;;;;;7.97;2.50;;;;;;;7.02;44.73;101463.31;5411493;32;34188;-68
2022/01/15 13:08:59;;;;;;;12.80;3.10;;;;;;;6.54;46.14;101448.81;5415470;32;45145;-67
2022/01/15 13:12:01;;;;;;;9.77;2.70;;;;;;;6.33;46.65;101434.13;5412545;32;33375;-67
2022/01/15 13:15:04;;;;;;;9.73;2.28;;;;;;;6.80;45.86;101440.81;5397958;32;34500;-67
2022/01/15 13:18:15;;;;;;;7.43;2.37;;;;;;;7.22;44.56;101438.75;5399717;32;35110;-68
2022/01/15 13:21:20;;;;;;;9.53;3.87;;;;;;;7.41;44.22;101442.94;5400592;32;44442;-67
2022/01/15 13:24:23;;;;;;;10.23;3.27;;;;;;;8.53;42.07;101433.81;5395786;32;34684;-68
2022/01/15 13:27:25;;;;;;;9.37;3.57;;;;;;;8.40;42.06;101439.22;5408203;32;34778;-66
2022/01/15 13:30:28;;;;;;;9.03;2.83;;;;;;;7.17;45.22;101446.63;5416559;32;34085;-67
2022/01/15 13:33:35;;;;;;;11.85;3.37;;;;;;;6.74;46.13;101440.84;5410604;32;34526;-67
2022/01/15 13:36:40;;;;;;;10.03;3.20;;;;;;;6.64;47.31;101439.19;5411040;32;34762;-68
2022/01/15 13:39:43;;;;;;;13.33;3.33;;;;;;;6.89;46.49;101450.31;5415744;32;34645;-69
2022/01/15 13:42:45;;;;;;;11.90;4.07;;;;;;;7.20;45.27;101448.34;5411804;32;34798;-68
2022/01/15 13:45:48;;;;;;;11.23;3.80;;;;;;;6.87;46.47;101452.94;5417307;32;44219;-67
2022/01/15 13:48:54;;;;;;;6.80;3.00;;;;;;;6.34;47.06;101448.91;5397824;32;34043;-67
2022/01/15 13:55:29;;;;;;;9.87;3.10;;;;;;;6.77;46.81;101446.06;5389552;32;44227;-68
2022/01/15 13:58:31;;;;;;;13.17;3.50;;;;;;;6.11;48.16;101450.75;5393365;32;34872;-68
2022/01/15 14:01:49;;;;;;;10.33;3.37;;;;;;;6.10;48.24;101447.28;5384307;32;34780;-68
2022/01/15 14:04:53;;;;;;;7.87;2.67;;;;;;;6.54;47.62;101448.81;5411839;32;44576;-69
2022/01/15 14:07:55;;;;;;;;;;;;;;;7.71;43.81;101457.47;5415455;32;34467;-68
2022/01/15 14:10:57;;;;;;;9.40;3.10;;;;;;;6.97;45.42;101441.56;5413240;32;34595;-67
2022/01/15 14:14:06;;;;;;;9.57;3.57;;;;;;;8.31;42.14;101441.09;5397186;32;33987;-67
2022/01/15 14:17:08;;;;;;;11.13;3.77;;;;;;;7.69;43.67;101450.53;5408199;32;34672;-68
2022/01/15 14:23:33;;;;;;;10.97;3.87;;;;;;;6.81;46.20;101453.00;5403061;32;44636;-68
2022/01/15 14:26:45;;;;;;;8.30;2.90;;;;;;;6.99;45.47;101452.88;5408742;32;34157;-68
2022/01/15 14:29:53;;;;;;;12.50;3.43;;;;;;;6.47;46.35;101452.34;5412259;32;45621;-69
2022/01/15 14:32:55;;;;;;;7.73;2.40;;;;;;;7.28;44.37;101446.56;5395755;32;35994;-68
2022/01/15 14:35:58;;;;;;;8.37;3.00;;;;;;;6.76;44.77;101439.97;5403218;32;34377;-68
2022/01/15 14:39:04;;;;;;;9.88;2.87;;;;;;;6.37;45.71;101443.66;5412885;32;34026;-68